sensor_id;sensor_type;location;lat;lon;timestamp;P1;durP1;ratioP1;P2;durP2;ratioP2
78372;SDS011;67656;52.074;4.758;2023-03-31T00:00:57;9.10;;;1.78;;
78372;SDS011;67656;52.074;4.758;2023-03-31T00:05:58;12.25;;;2.08;;
78372;SDS011;67656;52.074;4.758;2023-03-31T00:11:00;9.60;;;2.30;;
78372;SDS011;67656;52.074;4.758;2023-03-31T00:16:06;12.98;;;1.90;;
78372;SDS011;67656;52.074;4.758;2023-03-31T00:21:09;11.93;;;1.88;;
78372;SDS011;67656;52.074;4.758;2023-03-31T00:26:11;9.98;;;1.98;;
78372;SDS011;67656;52.074;4.758;2023-03-31T00:31:11;10.48;;;1.88;;
78372;SDS011;67656;52.074;4.758;2023-03-31T00:36:12;13.90;;;2.47;;
78372;SDS011;67656;52.074;4.758;2023-03-31T00:41:13;14.07;;;2.10;;
78372;SDS011;67656;52.074;4.758;2023-03-31T00:46:15;9.73;;;2.33;;
78372;SDS011;67656;52.074;4.758;2023-03-31T00:51:20;20.88;;;2.80;;
78372;SDS011;67656;52.074;4.758;2023-03-31T00:56:21;12.48;;;2.58;;
78372;SDS011;67656;52.074;4.758;2023-03-31T01:01:23;9.48;;;2.30;;
78372;SDS011;67656;52.074;4.758;2023-03-31T01:06:23;13.82;;;2.28;;
78372;SDS011;67656;52.074;4.758;2023-03-31T01:11:25;7.97;;;2.03;;
78372;SDS011;67656;52.074;4.758;2023-03-31T01:16:27;9.65;;;1.92;;
78372;SDS011;67656;52.074;4.758;2023-03-31T01:27:25;11.13;;;1.88;;
78372;SDS011;67656;52.074;4.758;2023-03-31T01:43:09;12.43;;;2.35;;
78372;SDS011;67656;52.074;4.758;2023-03-31T01:48:18;11.75;;;2.25;;
78372;SDS011;67656;52.074;4.758;2023-03-31T01:59:06;11.68;;;2.13;;
78372;SDS011;67656;52.074;4.758;2023-03-31T02:04:27;9.65;;;2.10;;
78372;SDS011;67656;52.074;4.758;2023-03-31T02:09:37;10.20;;;2.28;;
78372;SDS011;67656;52.074;4.758;2023-03-31T02:14:42;7.43;;;1.98;;
78372;SDS011;67656;52.074;4.758;2023-03-31T02:19:46;9.90;;;1.83;;
78372;SDS011;67656;52.074;4.758;2023-03-31T02:24:50;9.82;;;1.77;;
78372;SDS011;67656;52.074;4.758;2023-03-31T02:29:53;8.73;;;2.35;;
78372;SDS011;67656;52.074;4.758;2023-03-31T02:34:54;11.60;;;1.70;;
78372;SDS011;67656;52.074;4.758;2023-03-31T02:39:56;8.63;;;1.42;;
78372;SDS011;67656;52.074;4.758;2023-03-31T02:50:02;5.68;;;1.38;;
78372;SDS011;67656;52.074;4.758;2023-03-31T02:55:14;8.25;;;1.50;;
78372;SDS011;67656;52.074;4.758;2023-03-31T03:05:52;11.45;;;2.33;;
78372;SDS011;67656;52.074;4.758;2023-03-31T03:16:56;13.35;;;3.35;;
78372;SDS011;67656;52.074;4.758;2023-03-31T03:27:18;12.30;;;2.83;;
78372;SDS011;67656;52.074;4.758;2023-03-31T03:32:20;12.70;;;2.30;;
78372;SDS011;67656;52.074;4.758;2023-03-31T03:37:20;8.06;;;2.20;;
78372;SDS011;67656;52.074;4.758;2023-03-31T03:42:20;7.75;;;1.63;;
78372;SDS011;67656;52.074;4.758;2023-03-31T03:47:20;6.93;;;1.60;;
78372;SDS011;67656;52.074;4.758;2023-03-31T03:52:21;7.76;;;1.88;;
78372;SDS011;67656;52.074;4.758;2023-03-31T03:57:21;12.68;;;2.24;;
78372;SDS011;67656;52.074;4.758;2023-03-31T04:02:21;20.38;;;3.33;;
78372;SDS011;67656;52.074;4.758;2023-03-31T04:07:22;8.73;;;2.20;;
78372;SDS011;67656;52.074;4.758;2023-03-31T04:12:22;6.32;;;2.33;;
78372;SDS011;67656;52.074;4.758;2023-03-31T04:17:22;12.06;;;1.96;;
78372;SDS011;67656;52.074;4.758;2023-03-31T04:22:23;11.20;;;2.44;;
78372;SDS011;67656;52.074;4.758;2023-03-31T04:27:23;11.52;;;2.64;;
78372;SDS011;67656;52.074;4.758;2023-03-31T04:32:23;9.00;;;2.05;;
78372;SDS011;67656;52.074;4.758;2023-03-31T04:37:24;9.38;;;2.00;;
78372;SDS011;67656;52.074;4.758;2023-03-31T04:42:24;10.00;;;2.28;;
78372;SDS011;67656;52.074;4.758;2023-03-31T04:47:24;6.80;;;2.03;;
78372;SDS011;67656;52.074;4.758;2023-03-31T04:52:25;8.42;;;2.00;;
78372;SDS011;67656;52.074;4.758;2023-03-31T04:57:25;11.78;;;2.06;;
78372;SDS011;67656;52.074;4.758;2023-03-31T05:02:25;12.60;;;1.67;;
78372;SDS011;67656;52.074;4.758;2023-03-31T05:07:26;8.20;;;1.63;;
78372;SDS011;67656;52.074;4.758;2023-03-31T05:12:26;13.02;;;2.17;;
78372;SDS011;67656;52.074;4.758;2023-03-31T05:17:27;9.20;;;1.77;;
78372;SDS011;67656;52.074;4.758;2023-03-31T05:22:30;6.00;;;1.60;;
78372;SDS011;67656;52.074;4.758;2023-03-31T05:27:34;12.68;;;2.28;;
78372;SDS011;67656;52.074;4.758;2023-03-31T05:32:35;8.48;;;1.55;;
78372;SDS011;67656;52.074;4.758;2023-03-31T05:37:38;6.45;;;1.58;;
78372;SDS011;67656;52.074;4.758;2023-03-31T05:42:47;6.28;;;1.50;;
78372;SDS011;67656;52.074;4.758;2023-03-31T05:47:48;7.47;;;1.35;;
78372;SDS011;67656;52.074;4.758;2023-03-31T05:52:55;5.10;;;1.45;;
78372;SDS011;67656;52.074;4.758;2023-03-31T05:57:55;6.03;;;1.30;;
78372;SDS011;67656;52.074;4.758;2023-03-31T06:02:55;5.22;;;1.40;;
78372;SDS011;67656;52.074;4.758;2023-03-31T06:07:56;3.45;;;1.30;;
78372;SDS011;67656;52.074;4.758;2023-03-31T06:12:56;12.15;;;1.80;;
78372;SDS011;67656;52.074;4.758;2023-03-31T06:18:06;4.45;;;1.35;;
78372;SDS011;67656;52.074;4.758;2023-03-31T06:23:06;3.35;;;1.10;;
78372;SDS011;67656;52.074;4.758;2023-03-31T06:28:07;4.65;;;1.10;;
78372;SDS011;67656;52.074;4.758;2023-03-31T06:33:25;2.88;;;0.90;;
78372;SDS011;67656;52.074;4.758;2023-03-31T06:38:29;4.95;;;0.93;;
78372;SDS011;67656;52.074;4.758;2023-03-31T06:43:38;4.27;;;0.80;;
78372;SDS011;67656;52.074;4.758;2023-03-31T06:48:53;2.95;;;0.88;;
78372;SDS011;67656;52.074;4.758;2023-03-31T06:53:53;6.43;;;1.05;;
78372;SDS011;67656;52.074;4.758;2023-03-31T06:58:54;4.15;;;0.82;;
78372;SDS011;67656;52.074;4.758;2023-03-31T07:04:12;3.85;;;1.00;;
78372;SDS011;67656;52.074;4.758;2023-03-31T07:09:14;4.53;;;1.30;;
78372;SDS011;67656;52.074;4.758;2023-03-31T07:14:14;7.43;;;1.70;;
78372;SDS011;67656;52.074;4.758;2023-03-31T07:19:15;4.45;;;1.45;;
78372;SDS011;67656;52.074;4.758;2023-03-31T07:24:15;4.82;;;1.70;;
78372;SDS011;67656;52.074;4.758;2023-03-31T07:29:16;9.43;;;2.00;;
78372;SDS011;67656;52.074;4.758;2023-03-31T07:34:29;3.40;;;1.50;;
78372;SDS011;67656;52.074;4.758;2023-03-31T07:45:01;8.43;;;2.30;;
78372;SDS011;67656;52.074;4.758;2023-03-31T07:50:14;8.38;;;2.75;;
78372;SDS011;67656;52.074;4.758;2023-03-31T08:01:21;9.15;;;1.80;;
78372;SDS011;67656;52.074;4.758;2023-03-31T08:06:38;9.18;;;2.10;;
78372;SDS011;67656;52.074;4.758;2023-03-31T08:11:57;7.82;;;2.10;;
78372;SDS011;67656;52.074;4.758;2023-03-31T08:17:13;9.85;;;2.40;;
78372;SDS011;67656;52.074;4.758;2023-03-31T08:22:57;6.55;;;1.60;;
78372;SDS011;67656;52.074;4.758;2023-03-31T08:33:48;8.20;;;1.73;;
78372;SDS011;67656;52.074;4.758;2023-03-31T08:38:49;6.60;;;1.75;;
78372;SDS011;67656;52.074;4.758;2023-03-31T08:49:49;5.93;;;1.60;;
78372;SDS011;67656;52.074;4.758;2023-03-31T08:54:57;7.95;;;2.15;;
78372;SDS011;67656;52.074;4.758;2023-03-31T09:00:00;11.45;;;2.05;;
78372;SDS011;67656;52.074;4.758;2023-03-31T09:05:04;7.72;;;1.65;;
78372;SDS011;67656;52.074;4.758;2023-03-31T09:15:27;7.97;;;1.67;;
78372;SDS011;67656;52.074;4.758;2023-03-31T09:20:31;12.52;;;1.90;;
78372;SDS011;67656;52.074;4.758;2023-03-31T09:25:38;13.60;;;1.75;;
78372;SDS011;67656;52.074;4.758;2023-03-31T09:30:40;8.32;;;1.63;;
78372;SDS011;67656;52.074;4.758;2023-03-31T09:35:41;10.35;;;1.73;;
78372;SDS011;67656;52.074;4.758;2023-03-31T09:40:49;9.77;;;1.70;;
78372;SDS011;67656;52.074;4.758;2023-03-31T09:46:02;7.93;;;1.95;;
78372;SDS011;67656;52.074;4.758;2023-03-31T09:56:51;9.02;;;1.48;;
78372;SDS011;67656;52.074;4.758;2023-03-31T10:02:02;12.45;;;1.75;;
78372;SDS011;67656;52.074;4.758;2023-03-31T10:07:26;10.15;;;1.60;;
78372;SDS011;67656;52.074;4.758;2023-03-31T10:12:27;11.70;;;1.88;;
78372;SDS011;67656;52.074;4.758;2023-03-31T10:17:29;8.98;;;1.30;;
78372;SDS011;67656;52.074;4.758;2023-03-31T10:22:31;6.45;;;1.70;;
78372;SDS011;67656;52.074;4.758;2023-03-31T10:27:32;9.93;;;1.55;;
78372;SDS011;67656;52.074;4.758;2023-03-31T10:32:34;7.55;;;1.67;;
78372;SDS011;67656;52.074;4.758;2023-03-31T10:37:39;11.50;;;1.40;;
78372;SDS011;67656;52.074;4.758;2023-03-31T10:42:40;7.25;;;1.20;;
78372;SDS011;67656;52.074;4.758;2023-03-31T10:47:47;9.95;;;1.42;;
78372;SDS011;67656;52.074;4.758;2023-03-31T10:52:48;11.67;;;1.60;;
78372;SDS011;67656;52.074;4.758;2023-03-31T10:57:53;15.32;;;1.76;;
78372;SDS011;67656;52.074;4.758;2023-03-31T11:45:22;4.80;;;0.95;;
78372;SDS011;67656;52.074;4.758;2023-03-31T11:50:44;6.07;;;1.20;;
78372;SDS011;67656;52.074;4.758;2023-03-31T11:55:47;2.78;;;0.63;;
78372;SDS011;67656;52.074;4.758;2023-03-31T12:00:59;4.85;;;0.80;;
78372;SDS011;67656;52.074;4.758;2023-03-31T12:06:27;3.58;;;0.60;;
78372;SDS011;67656;52.074;4.758;2023-03-31T12:16:36;3.97;;;0.93;;
78372;SDS011;67656;52.074;4.758;2023-03-31T12:21:40;7.95;;;1.13;;
78372;SDS011;67656;52.074;4.758;2023-03-31T12:26:49;4.80;;;1.42;;
78372;SDS011;67656;52.074;4.758;2023-03-31T12:31:52;5.55;;;1.30;;
78372;SDS011;67656;52.074;4.758;2023-03-31T12:37:03;8.80;;;1.67;;
78372;SDS011;67656;52.074;4.758;2023-03-31T12:47:48;7.35;;;1.63;;
78372;SDS011;67656;52.074;4.758;2023-03-31T13:08:53;5.55;;;1.05;;
78372;SDS011;67656;52.074;4.758;2023-03-31T13:13:57;5.78;;;1.30;;
78372;SDS011;67656;52.074;4.758;2023-03-31T13:24:33;5.82;;;0.77;;
78372;SDS011;67656;52.074;4.758;2023-03-31T13:34:35;4.85;;;1.00;;
78372;SDS011;67656;52.074;4.758;2023-03-31T14:06:46;6.90;;;2.05;;
78372;SDS011;67656;52.074;4.758;2023-03-31T14:11:51;5.30;;;1.50;;
78372;SDS011;67656;52.074;4.758;2023-03-31T14:16:56;7.25;;;2.28;;
78372;SDS011;67656;52.074;4.758;2023-03-31T14:38:22;4.22;;;0.88;;
78372;SDS011;67656;52.074;4.758;2023-03-31T14:43:24;4.55;;;1.00;;
78372;SDS011;67656;52.074;4.758;2023-03-31T14:48:28;3.00;;;1.13;;
78372;SDS011;67656;52.074;4.758;2023-03-31T14:53:30;3.72;;;0.85;;
78372;SDS011;67656;52.074;4.758;2023-03-31T14:58:32;2.53;;;0.90;;
78372;SDS011;67656;52.074;4.758;2023-03-31T15:03:36;5.97;;;1.27;;
78372;SDS011;67656;52.074;4.758;2023-03-31T15:13:41;4.03;;;1.42;;
78372;SDS011;67656;52.074;4.758;2023-03-31T15:18:46;3.42;;;1.08;;
78372;SDS011;67656;52.074;4.758;2023-03-31T15:23:49;5.00;;;1.25;;
78372;SDS011;67656;52.074;4.758;2023-03-31T15:28:52;5.18;;;1.88;;
78372;SDS011;67656;52.074;4.758;2023-03-31T15:33:57;3.22;;;1.60;;
78372;SDS011;67656;52.074;4.758;2023-03-31T15:38:57;3.58;;;1.50;;
78372;SDS011;67656;52.074;4.758;2023-03-31T15:44:03;4.32;;;1.30;;
78372;SDS011;67656;52.074;4.758;2023-03-31T15:49:26;4.05;;;1.30;;
78372;SDS011;67656;52.074;4.758;2023-03-31T15:54:40;3.70;;;1.38;;
78372;SDS011;67656;52.074;4.758;2023-03-31T15:59:50;7.83;;;1.43;;
78372;SDS011;67656;52.074;4.758;2023-03-31T16:04:55;2.25;;;1.30;;
78372;SDS011;67656;52.074;4.758;2023-03-31T16:10:02;4.85;;;1.70;;
78372;SDS011;67656;52.074;4.758;2023-03-31T16:15:13;5.90;;;2.15;;
78372;SDS011;67656;52.074;4.758;2023-03-31T16:20:18;4.50;;;2.10;;
78372;SDS011;67656;52.074;4.758;2023-03-31T16:25:22;6.00;;;2.10;;
78372;SDS011;67656;52.074;4.758;2023-03-31T16:30:34;3.70;;;2.05;;
78372;SDS011;67656;52.074;4.758;2023-03-31T16:35:40;5.45;;;1.90;;
78372;SDS011;67656;52.074;4.758;2023-03-31T16:40:43;5.00;;;2.38;;
78372;SDS011;67656;52.074;4.758;2023-03-31T16:45:46;4.43;;;1.70;;
78372;SDS011;67656;52.074;4.758;2023-03-31T16:50:48;3.72;;;1.60;;
78372;SDS011;67656;52.074;4.758;2023-03-31T16:55:50;4.72;;;2.33;;
78372;SDS011;67656;52.074;4.758;2023-03-31T17:00:50;6.78;;;2.30;;
78372;SDS011;67656;52.074;4.758;2023-03-31T17:05:52;5.95;;;2.35;;
78372;SDS011;67656;52.074;4.758;2023-03-31T17:10:55;5.55;;;2.10;;
78372;SDS011;67656;52.074;4.758;2023-03-31T17:16:00;5.10;;;2.00;;
78372;SDS011;67656;52.074;4.758;2023-03-31T17:21:07;5.63;;;1.55;;
78372;SDS011;67656;52.074;4.758;2023-03-31T17:26:10;4.47;;;1.48;;
78372;SDS011;67656;52.074;4.758;2023-03-31T17:31:14;3.97;;;1.58;;
78372;SDS011;67656;52.074;4.758;2023-03-31T17:36:18;6.78;;;1.70;;
78372;SDS011;67656;52.074;4.758;2023-03-31T17:41:18;3.85;;;1.50;;
78372;SDS011;67656;52.074;4.758;2023-03-31T17:46:19;20.02;;;6.30;;
78372;SDS011;67656;52.074;4.758;2023-03-31T17:51:19;5.64;;;1.88;;
78372;SDS011;67656;52.074;4.758;2023-03-31T17:56:19;5.85;;;2.05;;
78372;SDS011;67656;52.074;4.758;2023-03-31T18:01:29;7.47;;;2.40;;
78372;SDS011;67656;52.074;4.758;2023-03-31T18:06:37;10.70;;;3.28;;
78372;SDS011;67656;52.074;4.758;2023-03-31T18:11:37;5.47;;;1.75;;
78372;SDS011;67656;52.074;4.758;2023-03-31T18:16:38;7.63;;;3.15;;
78372;SDS011;67656;52.074;4.758;2023-03-31T18:21:38;6.25;;;2.30;;
78372;SDS011;67656;52.074;4.758;2023-03-31T18:26:39;8.96;;;2.94;;
78372;SDS011;67656;52.074;4.758;2023-03-31T18:31:39;9.14;;;2.74;;
78372;SDS011;67656;52.074;4.758;2023-03-31T18:36:39;8.23;;;3.00;;
78372;SDS011;67656;52.074;4.758;2023-03-31T18:41:43;11.12;;;2.52;;
78372;SDS011;67656;52.074;4.758;2023-03-31T18:46:46;8.48;;;2.42;;
78372;SDS011;67656;52.074;4.758;2023-03-31T18:51:46;12.30;;;2.50;;
78372;SDS011;67656;52.074;4.758;2023-03-31T18:56:47;6.80;;;1.88;;
78372;SDS011;67656;52.074;4.758;2023-03-31T19:01:47;8.18;;;1.76;;
78372;SDS011;67656;52.074;4.758;2023-03-31T19:06:47;8.85;;;2.20;;
78372;SDS011;67656;52.074;4.758;2023-03-31T19:11:48;10.65;;;2.30;;
78372;SDS011;67656;52.074;4.758;2023-03-31T19:16:48;9.88;;;2.20;;
78372;SDS011;67656;52.074;4.758;2023-03-31T19:21:49;5.40;;;2.08;;
78372;SDS011;67656;52.074;4.758;2023-03-31T19:26:49;6.90;;;2.30;;
78372;SDS011;67656;52.074;4.758;2023-03-31T19:31:50;7.47;;;2.50;;
78372;SDS011;67656;52.074;4.758;2023-03-31T19:36:50;11.32;;;2.28;;
78372;SDS011;67656;52.074;4.758;2023-03-31T19:42:03;7.60;;;2.50;;
78372;SDS011;67656;52.074;4.758;2023-03-31T19:52:56;8.73;;;2.35;;
78372;SDS011;67656;52.074;4.758;2023-03-31T19:57:56;9.35;;;2.90;;
78372;SDS011;67656;52.074;4.758;2023-03-31T20:02:56;6.35;;;1.98;;
78372;SDS011;67656;52.074;4.758;2023-03-31T20:07:57;10.60;;;2.20;;
78372;SDS011;67656;52.074;4.758;2023-03-31T20:12:57;6.88;;;2.03;;
78372;SDS011;67656;52.074;4.758;2023-03-31T20:17:58;7.63;;;1.83;;
78372;SDS011;67656;52.074;4.758;2023-03-31T20:22:58;9.57;;;2.00;;
78372;SDS011;67656;52.074;4.758;2023-03-31T20:27:59;10.18;;;2.38;;
78372;SDS011;67656;52.074;4.758;2023-03-31T20:32:59;11.07;;;2.05;;
78372;SDS011;67656;52.074;4.758;2023-03-31T20:37:59;8.95;;;2.40;;
78372;SDS011;67656;52.074;4.758;2023-03-31T20:43:00;12.88;;;2.35;;
78372;SDS011;67656;52.074;4.758;2023-03-31T20:48:00;10.30;;;2.50;;
78372;SDS011;67656;52.074;4.758;2023-03-31T20:53:00;13.40;;;2.32;;
78372;SDS011;67656;52.074;4.758;2023-03-31T20:58:01;5.95;;;2.35;;
78372;SDS011;67656;52.074;4.758;2023-03-31T21:03:01;14.00;;;3.20;;
78372;SDS011;67656;52.074;4.758;2023-03-31T21:08:01;11.25;;;2.67;;
78372;SDS011;67656;52.074;4.758;2023-03-31T21:13:02;13.20;;;2.70;;
78372;SDS011;67656;52.074;4.758;2023-03-31T21:18:03;20.35;;;3.92;;
78372;SDS011;67656;52.074;4.758;2023-03-31T21:23:04;18.80;;;3.63;;
78372;SDS011;67656;52.074;4.758;2023-03-31T21:28:04;16.77;;;4.35;;
78372;SDS011;67656;52.074;4.758;2023-03-31T21:33:05;22.25;;;4.28;;
78372;SDS011;67656;52.074;4.758;2023-03-31T21:38:05;21.50;;;5.00;;
78372;SDS011;67656;52.074;4.758;2023-03-31T21:43:05;25.12;;;5.88;;
78372;SDS011;67656;52.074;4.758;2023-03-31T21:48:07;28.67;;;5.65;;
78372;SDS011;67656;52.074;4.758;2023-03-31T21:53:09;20.75;;;4.88;;
78372;SDS011;67656;52.074;4.758;2023-03-31T21:58:09;23.50;;;5.13;;
78372;SDS011;67656;52.074;4.758;2023-03-31T22:03:11;22.83;;;6.07;;
78372;SDS011;67656;52.074;4.758;2023-03-31T22:08:12;32.60;;;5.60;;
78372;SDS011;67656;52.074;4.758;2023-03-31T22:13:12;22.83;;;5.75;;
78372;SDS011;67656;52.074;4.758;2023-03-31T22:18:13;26.85;;;6.00;;
78372;SDS011;67656;52.074;4.758;2023-03-31T22:23:14;20.88;;;5.28;;
78372;SDS011;67656;52.074;4.758;2023-03-31T22:28:15;25.83;;;5.68;;
78372;SDS011;67656;52.074;4.758;2023-03-31T22:33:16;23.90;;;4.78;;
78372;SDS011;67656;52.074;4.758;2023-03-31T22:38:16;16.34;;;4.28;;
78372;SDS011;67656;52.074;4.758;2023-03-31T22:43:16;21.95;;;3.80;;
78372;SDS011;67656;52.074;4.758;2023-03-31T22:48:17;21.92;;;4.35;;
78372;SDS011;67656;52.074;4.758;2023-03-31T22:53:17;20.83;;;4.72;;
78372;SDS011;67656;52.074;4.758;2023-03-31T22:58:17;31.40;;;5.20;;
78372;SDS011;67656;52.074;4.758;2023-03-31T23:03:18;27.98;;;5.20;;
78372;SDS011;67656;52.074;4.758;2023-03-31T23:08:18;21.08;;;5.40;;
78372;SDS011;67656;52.074;4.758;2023-03-31T23:13:18;31.77;;;6.78;;
78372;SDS011;67656;52.074;4.758;2023-03-31T23:18:19;31.23;;;7.65;;
78372;SDS011;67656;52.074;4.758;2023-03-31T23:23:19;29.77;;;7.82;;
78372;SDS011;67656;52.074;4.758;2023-03-31T23:28:19;32.42;;;7.18;;
78372;SDS011;67656;52.074;4.758;2023-03-31T23:33:20;33.12;;;7.78;;
78372;SDS011;67656;52.074;4.758;2023-03-31T23:38:20;33.38;;;7.18;;
78372;SDS011;67656;52.074;4.758;2023-03-31T23:43:20;40.76;;;7.54;;
78372;SDS011;67656;52.074;4.758;2023-03-31T23:48:20;46.50;;;8.55;;
78372;SDS011;67656;52.074;4.758;2023-03-31T23:53:21;37.38;;;9.75;;
78372;SDS011;67656;52.074;4.758;2023-03-31T23:58:21;39.47;;;9.05;;
